Portada
METAR-TAF:

METAR-TAF

Aeropuertos :

Capo Bellavista

Tortolì, Italia

latitud: 39-56N, longitud: 009-43E, altitud: 138 m

Observación

El informe se hizo hace 1 hora y 20 minutos, a las 06:55 UTC
Viento 15 kt del sureste
Temperatura 13°C
Humedad 100%
Presión 1012 hPa
Visibilidad: 2000 m
Cielo nuboso a una altura de 400 ft
Nubes dispersas a una altura de 3000 ft
lluvia

METAR: LIEB 160655Z 13015KT 2000 RA BKN004 SCT030 13/13 Q1012 RMK OVC QUK / QUL / VIS MAR 2000 M MON INVIS VIS MIN 2000

Hora: 10:15 (08:15 UTC)


TAF: falta

Observaciones y pronósticos meteorológicos de más de 4000 aeropuertos (mensajes METAR y TAF).

Los puntos amarillos y rojos representan las estaciones disponibles.

Ponga el ratón en el punto deseado para ver el nombre de la estación.

Haga clic para ver las observaciones y los pronósticos meteorológicos.

Para cambiar el mapa : haga clic en los botones verdes con una cruz de color negro para hacer un zoom, en el botón verde con un guión para alejar o en las flechas verdes para mapas adyacentes.


METAR-TAF: